createdAt,value
2018-05-14T00:01:12.644Z,65.46
2018-05-14T00:03:41.557Z,65.65
2018-05-14T00:06:10.304Z,65.93
2018-05-14T00:08:39.039Z,65.78
2018-05-14T00:11:08.591Z,65.04
2018-05-14T00:13:37.377Z,66.08
2018-05-14T00:16:06.147Z,66.86
2018-05-14T00:18:35.136Z,67.55
2018-05-14T00:21:04.250Z,67.44
2018-05-14T00:23:33.801Z,66.99
2018-05-14T00:26:03.457Z,66.41
2018-05-14T00:28:32.227Z,65.73
2018-05-14T00:31:01.059Z,65.18
2018-05-14T00:33:29.825Z,64.96
2018-05-14T00:35:58.665Z,65.27
2018-05-14T00:38:27.461Z,65.57
2018-05-14T00:40:56.244Z,65.86
2018-05-14T00:43:24.987Z,66.98
2018-05-14T00:45:53.816Z,67.41
2018-05-14T00:48:22.632Z,67.70
2018-05-14T00:50:51.588Z,67.55
2018-05-14T00:53:20.399Z,67.45
2018-05-14T00:55:49.135Z,67.50
2018-05-14T00:58:17.917Z,67.03
2018-05-14T01:00:46.688Z,66.00
2018-05-14T01:03:15.480Z,65.92
2018-05-14T01:05:44.281Z,67.55
2018-05-14T01:08:13.056Z,67.82
2018-05-14T01:10:42.130Z,67.13
2018-05-14T01:13:12.800Z,66.93
2018-05-14T01:15:42.280Z,66.98
2018-05-14T01:18:12.262Z,67.30
2018-05-14T01:20:42.068Z,67.18
2018-05-14T01:23:10.804Z,66.96
2018-05-14T01:25:39.585Z,66.70
2018-05-14T01:28:09.186Z,66.29
2018-05-14T01:30:38.606Z,66.80
2018-05-14T01:33:07.467Z,67.15
2018-05-14T01:35:36.289Z,66.96
2018-05-14T01:38:04.969Z,67.20
2018-05-14T01:40:33.955Z,67.53
2018-05-14T01:43:02.705Z,68.15
2018-05-14T01:45:31.449Z,68.17
2018-05-14T01:48:00.288Z,67.70
2018-05-14T01:50:29.056Z,66.87
2018-05-14T01:52:58.610Z,66.66
2018-05-14T01:55:27.388Z,65.92
2018-05-14T01:57:56.280Z,65.64
2018-05-14T02:00:25.135Z,65.62
2018-05-14T02:02:53.931Z,65.86
2018-05-14T02:05:22.702Z,65.50
2018-05-14T02:07:51.512Z,65.41
2018-05-14T02:10:20.277Z,65.46
2018-05-14T02:12:49.067Z,66.04
2018-05-14T02:15:17.876Z,65.73
2018-05-14T02:17:46.735Z,66.07
2018-05-14T02:20:15.530Z,67.36
2018-05-14T02:22:44.494Z,68.15
2018-05-14T02:25:13.311Z,67.81
2018-05-14T02:27:42.721Z,67.82
2018-05-14T02:30:12.613Z,67.93
2018-05-14T02:32:43.255Z,68.06
2018-05-14T02:35:12.790Z,68.33
2018-05-14T02:37:42.607Z,68.38
2018-05-14T02:40:11.913Z,68.23
2018-05-14T02:42:40.655Z,68.07
2018-05-14T02:45:09.456Z,68.04
2018-05-14T02:47:39.008Z,68.07
2018-05-14T02:50:07.815Z,68.05
2018-05-14T02:52:36.917Z,67.92
2018-05-14T02:55:05.715Z,68.13
2018-05-14T02:57:35.311Z,68.18
2018-05-14T03:00:04.078Z,67.53
2018-05-14T03:02:32.920Z,67.19
2018-05-14T03:05:01.834Z,67.05
2018-05-14T03:07:30.617Z,67.13
2018-05-14T03:10:00.099Z,66.70
2018-05-14T03:12:29.648Z,66.66
2018-05-14T03:14:58.417Z,66.81
2018-05-14T03:17:27.196Z,66.91
2018-05-14T03:19:55.990Z,66.88
2018-05-14T03:22:24.825Z,66.66
2018-05-14T03:24:54.390Z,66.92
2018-05-14T03:27:23.350Z,66.70
2018-05-14T03:29:52.101Z,67.07
2018-05-14T03:32:20.869Z,67.41
2018-05-14T03:34:49.647Z,68.05
2018-05-14T03:37:18.405Z,68.17
2018-05-14T03:39:47.158Z,67.56
2018-05-14T03:42:15.930Z,67.06
2018-05-14T03:44:45.385Z,67.14
2018-05-14T03:47:15.185Z,67.16
2018-05-14T03:49:44.708Z,67.09
2018-05-14T03:52:13.778Z,66.82
2018-05-14T03:54:43.289Z,67.24
2018-05-14T03:57:14.011Z,67.08
2018-05-14T03:59:54.973Z,66.79
2018-05-14T04:02:36.621Z,67.04
2018-05-14T04:05:14.965Z,67.20
2018-05-14T04:07:43.767Z,67.41
2018-05-14T04:10:13.374Z,67.31
2018-05-14T04:12:42.133Z,67.26
2018-05-14T04:15:10.911Z,67.63
2018-05-14T04:17:39.805Z,67.90
2018-05-14T04:20:08.579Z,67.87
2018-05-14T04:22:37.387Z,67.31
2018-05-14T04:25:06.107Z,67.47
2018-05-14T04:27:34.888Z,67.11
2018-05-14T04:30:03.649Z,66.94
2018-05-14T04:32:32.416Z,67.09
2018-05-14T04:35:01.207Z,66.75
2018-05-14T04:37:30.391Z,67.08
2018-05-14T04:39:59.937Z,67.30
2018-05-14T04:42:29.476Z,67.41
2018-05-14T04:44:58.242Z,67.55
2018-05-14T04:47:27.478Z,67.67
2018-05-14T04:49:57.028Z,67.58
2018-05-14T04:52:25.792Z,67.49
2018-05-14T04:54:54.559Z,66.65
2018-05-14T04:57:24.111Z,66.56
2018-05-14T04:59:52.888Z,66.10
2018-05-14T05:02:21.650Z,65.39
2018-05-14T05:04:51.202Z,64.81
2018-05-14T05:07:19.985Z,64.68
2018-05-14T05:09:48.751Z,63.73
2018-05-14T05:12:17.653Z,64.41
2018-05-14T05:14:46.410Z,65.17
2018-05-14T05:17:15.176Z,65.47
2018-05-14T05:19:43.966Z,65.30
2018-05-14T05:22:13.868Z,65.33
2018-05-14T05:24:42.641Z,65.21
2018-05-14T05:27:11.419Z,65.39
2018-05-14T05:29:40.239Z,66.19
2018-05-14T05:32:09.018Z,66.42
2018-05-14T05:34:37.883Z,66.04
2018-05-14T05:37:06.641Z,65.87
2018-05-14T05:39:35.451Z,66.19
2018-05-14T05:42:04.351Z,66.04
2018-05-14T05:44:33.397Z,66.17
2018-05-14T05:47:02.128Z,65.63
2018-05-14T05:49:31.022Z,66.21
2018-05-14T05:51:59.815Z,67.52
2018-05-14T05:54:28.564Z,67.62
2018-05-14T05:56:58.189Z,67.19
2018-05-14T05:59:26.962Z,66.66
2018-05-14T06:01:55.757Z,66.13
2018-05-14T06:04:24.535Z,65.73
2018-05-14T06:06:53.272Z,65.89
2018-05-14T06:09:22.060Z,66.26
2018-05-14T06:11:51.572Z,66.50
2018-05-14T06:14:20.367Z,65.76
2018-05-14T06:16:49.133Z,65.61
2018-05-14T06:19:18.058Z,65.52
2018-05-14T06:21:46.781Z,64.85
2018-05-14T06:24:15.546Z,65.37
2018-05-14T06:26:44.387Z,64.75
2018-05-14T06:29:14.986Z,65.24
2018-05-14T06:31:44.433Z,65.75
2018-05-14T06:34:13.209Z,65.42
2018-05-14T06:36:42.736Z,65.56
2018-05-14T06:39:11.495Z,65.33
2018-05-14T06:41:40.225Z,64.82
2018-05-14T06:44:09.020Z,63.90
2018-05-14T06:46:37.877Z,64.84
2018-05-14T06:49:07.457Z,64.71
2018-05-14T06:51:36.293Z,64.87
2018-05-14T06:54:05.110Z,64.83
2018-05-14T06:56:33.877Z,65.62
2018-05-14T06:59:02.690Z,66.31
2018-05-14T07:01:31.504Z,65.99
2018-05-14T07:04:00.262Z,66.56
2018-05-14T07:06:28.993Z,67.32
2018-05-14T07:08:57.841Z,66.57
2018-05-14T07:11:26.706Z,67.16
2018-05-14T07:13:55.469Z,67.37
2018-05-14T07:16:25.066Z,67.11
2018-05-14T07:18:53.850Z,67.12
2018-05-14T07:21:22.669Z,66.42
2018-05-14T07:23:52.204Z,67.65
2018-05-14T07:26:20.999Z,66.87
2018-05-14T07:28:49.777Z,67.52
2018-05-14T07:31:18.662Z,66.61
2018-05-14T07:33:47.410Z,66.91
2018-05-14T07:36:16.196Z,67.39
2018-05-14T07:38:45.042Z,66.72
2018-05-14T07:41:14.864Z,65.50
2018-05-14T07:43:44.774Z,64.81
2018-05-14T07:46:13.560Z,65.66
2018-05-14T07:48:42.348Z,66.38
2018-05-14T07:51:11.121Z,66.25
2018-05-14T07:53:39.983Z,66.93
2018-05-14T07:56:09.016Z,68.11
2018-05-14T07:58:37.801Z,67.34
2018-05-14T08:01:06.541Z,68.22
2018-05-14T08:03:35.333Z,69.10
2018-05-14T08:06:04.177Z,69.18
2018-05-14T08:08:32.948Z,69.14
2018-05-14T08:11:02.725Z,68.77
2018-05-14T08:13:31.461Z,67.69
2018-05-14T08:16:00.234Z,68.16
2018-05-14T08:18:28.975Z,68.02
2018-05-14T08:20:58.426Z,69.14
2018-05-14T08:23:27.436Z,69.01
2018-05-14T08:25:56.900Z,70.54
2018-05-14T08:28:26.869Z,71.46
2018-05-14T08:30:56.306Z,70.91
2018-05-14T08:33:26.768Z,70.75
2018-05-14T08:35:55.896Z,71.19
2018-05-14T08:38:26.045Z,69.85
2018-05-14T08:40:55.444Z,70.06
2018-05-14T08:43:25.714Z,70.37
2018-05-14T08:45:54.704Z,69.28
2018-05-14T08:48:24.504Z,67.92
2018-05-14T08:50:54.850Z,68.84
2018-05-14T08:53:24.157Z,69.33
2018-05-14T08:55:53.139Z,69.93
2018-05-14T08:58:22.930Z,70.42
2018-05-14T09:00:52.018Z,70.84
2018-05-14T09:03:20.772Z,70.79
2018-05-14T09:05:50.477Z,71.60
2018-05-14T09:08:20.176Z,71.11
2018-05-14T09:10:49.166Z,70.41
2018-05-14T09:13:18.481Z,70.63
2018-05-14T09:15:47.252Z,70.37
2018-05-14T09:18:16.019Z,68.72
2018-05-14T09:20:45.603Z,69.65
2018-05-14T09:23:15.351Z,68.82
2018-05-14T09:25:44.145Z,67.29
2018-05-14T09:28:12.880Z,66.61
2018-05-14T09:30:41.645Z,67.71
2018-05-14T09:33:10.438Z,68.90
2018-05-14T09:35:39.209Z,69.04
2018-05-14T09:38:08.022Z,68.35
2018-05-14T09:40:36.843Z,67.99
2018-05-14T09:43:06.307Z,67.11
2018-05-14T09:45:36.146Z,66.60
2018-05-14T09:48:07.330Z,65.10
2018-05-14T09:50:36.196Z,67.84
2018-05-14T09:53:04.998Z,65.35
2018-05-14T09:55:33.774Z,67.31
2018-05-14T09:58:02.570Z,65.40
2018-05-14T10:00:31.293Z,65.71
2018-05-14T10:03:00.176Z,67.12
2018-05-14T10:05:29.962Z,66.27
2018-05-14T10:07:59.319Z,63.12
2018-05-14T10:10:28.081Z,65.29
2018-05-14T10:12:56.944Z,65.75
2018-05-14T10:15:26.519Z,63.79
2018-05-14T10:17:55.338Z,63.73
2018-05-14T10:20:24.097Z,64.29
2018-05-14T10:22:53.618Z,65.35
2018-05-14T10:25:22.400Z,63.50
2018-05-14T10:27:51.917Z,64.16
2018-05-14T10:30:20.681Z,64.28
2018-05-14T10:32:50.197Z,60.88
2018-05-14T10:35:18.950Z,60.79
2018-05-14T10:37:47.729Z,63.02
2018-05-14T10:40:16.492Z,61.29
2018-05-14T10:42:47.392Z,64.15
2018-05-14T10:45:16.214Z,64.74
2018-05-14T10:47:45.398Z,63.50
2018-05-14T10:50:14.926Z,63.42
2018-05-14T10:52:43.857Z,64.56
2018-05-14T10:55:12.538Z,62.83
2018-05-14T10:57:41.426Z,60.70
2018-05-14T11:00:10.939Z,64.00
2018-05-14T11:02:39.669Z,63.71
2018-05-14T11:05:09.740Z,62.70
2018-05-14T11:07:39.228Z,64.16
2018-05-14T11:10:08.768Z,64.62
2018-05-14T11:12:37.551Z,64.96
2018-05-14T11:15:06.301Z,65.41
2018-05-14T11:17:35.984Z,64.91
2018-05-14T11:20:04.847Z,64.35
2018-05-14T11:22:33.647Z,64.46
2018-05-14T11:25:02.884Z,65.08
2018-05-14T11:27:31.722Z,64.61
2018-05-14T11:30:00.416Z,62.87
2018-05-14T11:32:29.152Z,62.90
2018-05-14T11:34:57.952Z,62.45
2018-05-14T11:37:27.468Z,62.20
2018-05-14T11:39:56.360Z,60.92
2018-05-14T11:42:25.980Z,64.24
2018-05-14T11:44:55.719Z,64.12
2018-05-14T11:47:24.471Z,63.45
2018-05-14T11:49:53.251Z,63.63
2018-05-14T11:52:22.000Z,62.12
2018-05-14T11:54:50.802Z,61.76
2018-05-14T11:57:19.584Z,62.90
2018-05-14T11:59:48.416Z,63.03
2018-05-14T12:02:17.993Z,63.57
2018-05-14T12:04:46.881Z,64.13
2018-05-14T12:07:16.695Z,64.08
2018-05-14T12:09:45.493Z,65.08
2018-05-14T12:12:14.510Z,66.11
2018-05-14T12:14:43.325Z,65.54
2018-05-14T12:17:12.114Z,65.63
2018-05-14T12:19:40.946Z,66.87
2018-05-14T12:22:09.678Z,67.23
2018-05-14T12:24:38.477Z,67.02
2018-05-14T12:27:07.288Z,66.34
2018-05-14T12:29:36.094Z,66.64
2018-05-14T12:32:05.853Z,66.06
2018-05-14T12:34:34.645Z,65.22
2018-05-14T12:37:04.716Z,65.37
2018-05-14T12:39:33.486Z,65.65
2018-05-14T12:42:02.216Z,65.42
2018-05-14T12:44:31.799Z,64.90
2018-05-14T12:47:00.551Z,63.68
2018-05-14T12:49:29.331Z,62.95
2018-05-14T12:51:58.174Z,62.46
2018-05-14T12:54:26.862Z,61.63
2018-05-14T12:56:55.631Z,62.13
2018-05-14T12:59:24.598Z,62.29
2018-05-14T13:01:53.416Z,62.00
2018-05-14T13:04:22.318Z,61.59
2018-05-14T13:06:51.304Z,61.22
2018-05-14T13:09:22.118Z,60.97
2018-05-14T13:11:51.450Z,61.78
2018-05-14T13:14:20.174Z,62.84
2018-05-14T13:16:49.373Z,63.36
2018-05-14T13:19:18.208Z,62.63
2018-05-14T13:21:47.244Z,61.52
2018-05-14T13:24:17.206Z,61.22
2018-05-14T13:26:45.991Z,62.41
2018-05-14T13:29:15.282Z,62.95
2018-05-14T13:31:44.793Z,63.39
2018-05-14T13:34:13.613Z,63.68
2018-05-14T13:36:42.407Z,64.19
2018-05-14T13:39:12.017Z,63.64
2018-05-14T13:41:41.054Z,62.38
2018-05-14T13:44:09.963Z,62.36
2018-05-14T13:46:39.545Z,62.30
2018-05-14T13:49:08.344Z,62.45
2018-05-14T13:51:37.111Z,62.64
2018-05-14T13:54:06.344Z,62.73
2018-05-14T13:56:35.964Z,63.20
2018-05-14T13:59:05.636Z,63.38
2018-05-14T14:01:36.303Z,63.05
2018-05-14T14:04:05.208Z,63.39
2018-05-14T14:06:35.094Z,63.45
2018-05-14T14:09:03.945Z,62.50
2018-05-14T14:11:33.537Z,61.62
2018-05-14T14:14:02.230Z,61.79
2018-05-14T14:16:30.995Z,62.01
2018-05-14T14:18:59.806Z,62.76
2018-05-14T14:21:30.860Z,62.62
2018-05-14T14:23:59.972Z,63.27
2018-05-14T14:26:29.832Z,62.15
2018-05-14T14:28:58.601Z,62.81
2018-05-14T14:31:27.390Z,62.23
2018-05-14T14:33:56.134Z,61.73
2018-05-14T14:36:24.966Z,61.11
2018-05-14T14:38:53.728Z,60.55
2018-05-14T14:41:23.312Z,61.25
2018-05-14T14:43:52.737Z,61.75
2018-05-14T14:46:22.302Z,61.81
2018-05-14T14:48:52.076Z,60.55
2018-05-14T14:51:20.949Z,60.40
2018-05-14T14:53:49.851Z,60.06
2018-05-14T14:56:18.964Z,59.04
2018-05-14T14:58:48.278Z,59.01
2018-05-14T15:01:17.680Z,59.16
2018-05-14T15:03:46.505Z,60.13
2018-05-14T15:06:15.372Z,59.62
2018-05-14T15:08:45.690Z,60.64
2018-05-14T15:11:20.100Z,60.46
2018-05-14T15:13:48.899Z,60.04
2018-05-14T15:16:17.741Z,59.68
2018-05-14T15:18:51.553Z,59.79
2018-05-14T15:21:23.812Z,60.41
2018-05-14T15:23:52.684Z,59.50
2018-05-14T15:26:21.531Z,59.52
2018-05-14T15:31:32.869Z,59.15
2018-05-14T15:34:02.461Z,59.95
2018-05-14T15:36:31.335Z,60.74
2018-05-14T15:39:01.675Z,61.57
2018-05-14T15:41:35.547Z,61.47
2018-05-14T15:44:06.396Z,59.86
2018-05-14T15:46:35.886Z,59.69
2018-05-14T15:49:06.957Z,59.94
2018-05-14T15:51:42.420Z,60.82
2018-05-14T15:54:11.193Z,60.34
2018-05-14T15:56:40.016Z,59.86
2018-05-14T15:59:12.087Z,59.88
2018-05-14T16:01:42.080Z,60.93
2018-05-14T16:04:12.232Z,60.26
2018-05-14T16:06:41.069Z,60.66
2018-05-14T16:09:09.897Z,60.83
2018-05-14T16:11:41.815Z,61.42
2018-05-14T16:14:10.540Z,61.92
2018-05-14T16:16:39.285Z,62.33
2018-05-14T16:19:11.821Z,62.88
2018-05-14T16:21:41.659Z,62.51
2018-05-14T16:24:10.485Z,62.33
2018-05-14T16:26:39.621Z,62.52
2018-05-14T16:29:15.785Z,63.18
2018-05-14T16:31:46.787Z,63.21
2018-05-14T16:34:15.567Z,63.40
2018-05-14T16:36:45.176Z,63.33
2018-05-14T16:39:17.001Z,63.56
2018-05-14T16:41:46.538Z,63.32
2018-05-14T16:44:15.933Z,63.42
2018-05-14T16:46:45.457Z,63.49
2018-05-14T16:49:14.213Z,63.78
2018-05-14T16:51:43.021Z,63.91
2018-05-14T16:54:12.540Z,64.02
2018-05-14T16:56:41.264Z,63.91
2018-05-14T16:59:10.100Z,64.37
2018-05-14T17:01:38.976Z,64.74
2018-05-14T17:04:07.795Z,65.25
2018-05-14T17:06:36.961Z,65.06
2018-05-14T17:09:05.720Z,65.14
2018-05-14T17:11:34.477Z,65.02
2018-05-14T17:14:03.753Z,64.49
2018-05-14T17:16:32.513Z,64.37
2018-05-14T17:19:01.270Z,64.17
2018-05-14T17:21:30.135Z,63.88
2018-05-14T17:23:58.894Z,64.18
2018-05-14T17:26:27.687Z,64.42
2018-05-14T17:28:56.420Z,64.22
2018-05-14T17:31:25.218Z,64.24
2018-05-14T17:33:54.003Z,64.28
2018-05-14T17:36:23.672Z,64.23
2018-05-14T17:38:52.404Z,64.70
2018-05-14T17:41:21.187Z,64.26
2018-05-14T17:43:50.912Z,64.30
2018-05-14T17:46:19.903Z,63.99
2018-05-14T17:48:48.802Z,62.94
2018-05-14T17:51:19.390Z,63.35
2018-05-14T17:53:49.082Z,63.09
2018-05-14T17:56:18.705Z,63.51
2018-05-14T17:58:47.508Z,63.84
2018-05-14T18:01:16.409Z,64.10
2018-05-14T18:03:45.665Z,64.02
2018-05-14T18:06:15.066Z,64.08
2018-05-14T18:08:43.845Z,64.72
2018-05-14T18:11:12.699Z,64.92
2018-05-14T18:13:41.914Z,64.54
2018-05-14T18:16:12.381Z,64.73
2018-05-14T18:18:41.810Z,64.40
2018-05-14T18:21:12.226Z,64.39
2018-05-14T18:23:47.067Z,64.80
2018-05-14T18:26:17.768Z,64.37
2018-05-14T18:28:49.083Z,64.29
2018-05-14T18:31:25.471Z,64.33
2018-05-14T18:33:54.260Z,64.34
2018-05-14T18:36:23.089Z,63.62
2018-05-14T18:38:52.749Z,63.65
2018-05-14T18:41:21.536Z,63.46
2018-05-14T18:43:50.472Z,63.67
2018-05-14T18:46:19.248Z,63.33
2018-05-14T18:48:49.109Z,63.80
2018-05-14T18:51:18.698Z,64.00
2018-05-14T18:53:47.572Z,63.59
2018-05-14T18:56:16.369Z,63.67
2018-05-14T18:58:45.185Z,63.83
2018-05-14T19:01:15.669Z,63.94
2018-05-14T19:03:45.943Z,63.95
2018-05-14T19:06:14.794Z,64.45
2018-05-14T19:08:43.579Z,64.28
2018-05-14T19:11:17.864Z,63.98
2018-05-14T19:13:47.220Z,64.00
2018-05-14T19:16:21.450Z,64.16
2018-05-14T19:18:50.304Z,64.00
2018-05-14T19:21:19.256Z,64.00
2018-05-14T19:23:53.922Z,64.46
2018-05-14T19:26:22.660Z,64.12
2018-05-14T19:28:57.716Z,63.99
2018-05-14T19:31:26.454Z,64.75
2018-05-14T19:34:00.826Z,64.93
2018-05-14T19:36:29.611Z,64.75
2018-05-14T19:38:59.085Z,64.69
2018-05-14T19:41:27.933Z,64.47
2018-05-14T19:43:56.762Z,64.61
2018-05-14T19:46:26.298Z,64.85
2018-05-14T19:48:55.837Z,64.75
2018-05-14T19:51:25.584Z,64.84
2018-05-14T19:53:54.323Z,63.74
2018-05-14T19:56:23.139Z,64.41
2018-05-14T19:58:51.873Z,64.53
2018-05-14T20:01:20.625Z,64.33
2018-05-14T20:03:49.745Z,64.12
2018-05-14T20:06:20.883Z,63.38
2018-05-14T20:08:50.424Z,63.83
2018-05-14T20:11:19.703Z,64.04
2018-05-14T20:13:51.020Z,64.14
2018-05-14T20:16:19.796Z,64.73
2018-05-14T20:18:49.620Z,64.68
2018-05-14T20:21:18.392Z,65.01
2018-05-14T20:23:47.142Z,65.03
2018-05-14T20:26:15.894Z,64.86
2018-05-14T20:28:44.806Z,64.82
2018-05-14T20:31:14.364Z,65.30
2018-05-14T20:33:43.189Z,65.20
2018-05-14T20:36:12.750Z,64.94
2018-05-14T20:38:42.423Z,65.01
2018-05-14T20:41:11.934Z,64.67
2018-05-14T20:43:41.887Z,64.83
2018-05-14T20:46:10.628Z,64.55
2018-05-14T20:48:39.402Z,64.35
2018-05-14T20:51:08.907Z,64.05
2018-05-14T20:53:37.638Z,64.29
2018-05-14T20:56:06.440Z,64.79
2018-05-14T20:58:35.225Z,63.71
2018-05-14T21:01:04.914Z,64.08
2018-05-14T21:03:33.695Z,64.73
2018-05-14T21:06:03.243Z,63.88
2018-05-14T21:08:32.564Z,64.18
2018-05-14T21:11:01.290Z,64.11
2018-05-14T21:13:30.828Z,64.06
2018-05-14T21:15:59.626Z,63.65
2018-05-14T21:18:28.698Z,64.37
2018-05-14T21:20:57.486Z,63.82
2018-05-14T21:23:26.220Z,64.34
2018-05-14T21:25:58.163Z,63.87
2018-05-14T21:28:27.674Z,63.05
2018-05-14T21:30:56.439Z,63.59
2018-05-14T21:33:25.178Z,63.75
2018-05-14T21:35:54.075Z,63.95
2018-05-14T21:38:22.853Z,64.20
2018-05-14T21:40:51.688Z,64.52
2018-05-14T21:43:21.399Z,64.94
2018-05-14T21:45:51.809Z,64.83
2018-05-14T21:48:21.521Z,64.64
2018-05-14T21:50:52.162Z,64.99
2018-05-14T21:53:21.557Z,64.93
2018-05-14T21:55:52.237Z,64.36
2018-05-14T21:58:21.549Z,64.57
2018-05-14T22:00:51.380Z,64.96
2018-05-14T22:03:20.155Z,64.86
2018-05-14T22:05:50.704Z,64.94
2018-05-14T22:08:19.621Z,64.90
2018-05-14T22:10:49.115Z,65.31
2018-05-14T22:13:17.914Z,65.70
2018-05-14T22:15:46.684Z,65.03
2018-05-14T22:18:15.492Z,65.44
2018-05-14T22:20:44.211Z,65.15
2018-05-14T22:23:12.974Z,64.68
2018-05-14T22:25:41.760Z,64.71
2018-05-14T22:28:11.296Z,64.31
2018-05-14T22:30:40.179Z,64.02
2018-05-14T22:33:09.192Z,64.20
2018-05-14T22:35:37.927Z,64.47
2018-05-14T22:38:06.749Z,64.28
2018-05-14T22:40:35.601Z,64.83
2018-05-14T22:43:05.278Z,64.32
2018-05-14T22:45:34.709Z,64.15
2018-05-14T22:48:03.563Z,63.40
2018-05-14T22:50:32.343Z,64.47
2018-05-14T22:53:01.757Z,64.85
2018-05-14T22:55:30.572Z,64.72
2018-05-14T22:57:59.319Z,64.46
2018-05-14T23:00:28.078Z,64.39
2018-05-14T23:02:57.188Z,63.97
2018-05-14T23:05:25.960Z,62.96
2018-05-14T23:07:54.732Z,63.17
2018-05-14T23:10:23.581Z,63.28
2018-05-14T23:12:53.985Z,62.89
2018-05-14T23:15:22.759Z,62.37
2018-05-14T23:17:52.133Z,63.40
2018-05-14T23:20:20.963Z,64.10
2018-05-14T23:22:49.733Z,64.57
2018-05-14T23:25:18.522Z,63.51
2018-05-14T23:27:48.044Z,64.54
2018-05-14T23:30:16.774Z,65.35
2018-05-14T23:32:45.558Z,65.07
2018-05-14T23:35:14.858Z,64.88
2018-05-14T23:37:43.648Z,64.97
2018-05-14T23:40:12.405Z,63.59
2018-05-14T23:42:41.161Z,64.73
2018-05-14T23:45:09.905Z,64.41
2018-05-14T23:47:39.869Z,64.63
2018-05-14T23:50:09.901Z,63.79
2018-05-14T23:52:39.425Z,63.88
2018-05-14T23:55:08.156Z,64.50
2018-05-14T23:57:36.899Z,64.20
